createdAt,value
2022-10-30T00:01:26.821Z,16.64
2022-10-30T00:03:53.282Z,16.70
2022-10-30T00:06:19.797Z,16.67
2022-10-30T00:08:46.298Z,16.67
2022-10-30T00:11:13.899Z,16.63
2022-10-30T00:13:42.534Z,16.67
2022-10-30T00:16:09.598Z,16.62
2022-10-30T00:18:37.356Z,16.56
2022-10-30T00:21:08.586Z,16.49
2022-10-30T00:23:35.103Z,16.42
2022-10-30T00:26:06.025Z,16.32
2022-10-30T00:28:32.660Z,16.37
2022-10-30T00:31:04.624Z,16.28
2022-10-30T00:33:31.395Z,16.27
2022-10-30T00:35:58.066Z,16.24
2022-10-30T00:38:24.599Z,16.22
2022-10-30T00:40:51.067Z,16.19
2022-10-30T00:43:33.660Z,16.18
2022-10-30T00:46:05.183Z,16.11
2022-10-30T00:48:32.573Z,16.10
2022-10-30T00:51:01.475Z,15.92
2022-10-30T00:53:29.494Z,15.95
2022-10-30T00:56:06.364Z,15.99
2022-10-30T00:58:38.326Z,15.91
2022-10-30T01:01:09.608Z,15.86
2022-10-30T01:03:37.401Z,15.83
2022-10-30T01:06:08.115Z,15.81
2022-10-30T01:08:35.267Z,15.56
2022-10-30T01:11:03.212Z,15.65
2022-10-30T01:13:30.453Z,15.58
2022-10-30T01:16:12.404Z,15.54
2022-10-30T01:19:02.780Z,15.51
2022-10-30T01:21:29.248Z,15.48
2022-10-30T01:24:18.769Z,15.41
2022-10-30T01:26:57.590Z,15.32
2022-10-30T01:29:31.640Z,15.17
2022-10-30T01:32:19.301Z,15.18
2022-10-30T01:35:02.522Z,15.02
2022-10-30T01:37:46.373Z,15.02
2022-10-30T01:40:15.027Z,15.03
2022-10-30T01:42:55.295Z,15.03
2022-10-30T01:45:49.839Z,14.97
2022-10-30T01:48:35.154Z,14.94
2022-10-30T01:51:27.802Z,14.87
2022-10-30T01:54:15.689Z,14.77
2022-10-30T01:57:00.797Z,14.73
2022-10-30T01:59:38.144Z,14.72
2022-10-30T02:02:05.109Z,14.67
2022-10-30T02:04:32.394Z,14.54
2022-10-30T02:06:58.851Z,14.54
2022-10-30T02:09:25.343Z,14.54
2022-10-30T02:11:53.531Z,14.51
2022-10-30T02:14:28.561Z,14.48
2022-10-30T02:16:58.387Z,14.41
2022-10-30T02:19:24.887Z,14.40
2022-10-30T02:21:51.502Z,14.37
2022-10-30T02:24:18.256Z,14.29
2022-10-30T02:26:44.824Z,14.12
2022-10-30T02:29:11.372Z,13.98
2022-10-30T02:31:38.082Z,14.08
2022-10-30T02:34:04.676Z,14.00
2022-10-30T02:36:31.183Z,14.02
2022-10-30T02:38:57.842Z,13.97
2022-10-30T02:41:24.487Z,13.94
2022-10-30T02:43:53.405Z,13.94
2022-10-30T02:46:20.395Z,13.94
2022-10-30T02:48:46.964Z,13.90
2022-10-30T02:51:13.618Z,13.86
2022-10-30T02:53:40.085Z,13.81
2022-10-30T02:56:09.329Z,13.78
2022-10-30T02:58:36.504Z,13.72
2022-10-30T03:01:14.392Z,13.67
2022-10-30T03:03:41.850Z,13.64
2022-10-30T03:06:11.323Z,13.62
2022-10-30T03:08:37.951Z,13.59
2022-10-30T03:11:09.901Z,13.54
2022-10-30T03:13:37.155Z,13.43
2022-10-30T03:16:06.782Z,13.39
2022-10-30T03:18:33.775Z,13.35
2022-10-30T03:21:02.208Z,13.29
2022-10-30T03:23:29.024Z,13.27
2022-10-30T03:25:57.407Z,13.19
2022-10-30T03:28:26.021Z,13.20
2022-10-30T03:30:58.087Z,13.14
2022-10-30T03:33:24.731Z,13.07
2022-10-30T03:35:51.652Z,13.02
2022-10-30T03:38:18.262Z,13.00
2022-10-30T03:40:44.774Z,13.00
2022-10-30T03:43:12.537Z,12.84
2022-10-30T03:45:39.014Z,12.95
2022-10-30T03:48:06.600Z,12.93
2022-10-30T03:50:33.194Z,12.89
2022-10-30T03:52:59.631Z,12.84
2022-10-30T03:55:26.108Z,12.78
2022-10-30T03:57:52.577Z,12.74
2022-10-30T04:00:19.534Z,12.68
2022-10-30T04:02:48.191Z,12.70
2022-10-30T04:05:16.495Z,12.66
2022-10-30T04:07:43.579Z,12.58
2022-10-30T04:10:10.967Z,12.57
2022-10-30T04:12:37.495Z,12.56
2022-10-30T04:15:05.964Z,12.58
2022-10-30T04:17:32.558Z,12.51
2022-10-30T04:19:59.040Z,12.50
2022-10-30T04:22:26.042Z,12.50
2022-10-30T04:24:53.643Z,12.28
2022-10-30T04:27:20.680Z,12.39
2022-10-30T04:29:47.399Z,12.28
2022-10-30T04:32:14.099Z,12.30
2022-10-30T04:34:40.722Z,12.33
2022-10-30T04:37:07.774Z,12.33
2022-10-30T04:39:34.330Z,12.31
2022-10-30T04:42:00.867Z,12.16
2022-10-30T04:44:27.309Z,12.13
2022-10-30T04:46:53.741Z,12.16
2022-10-30T04:49:20.248Z,12.09
2022-10-30T04:51:47.364Z,12.05
2022-10-30T04:54:13.879Z,12.06
2022-10-30T04:56:40.300Z,12.06
2022-10-30T04:59:06.890Z,12.04
2022-10-30T05:01:33.454Z,12.05
2022-10-30T05:03:59.994Z,12.05
2022-10-30T05:06:28.127Z,12.02
2022-10-30T05:08:55.783Z,12.01
2022-10-30T05:11:22.302Z,12.01
2022-10-30T05:13:48.859Z,11.87
2022-10-30T05:16:15.319Z,11.95
2022-10-30T05:18:41.750Z,11.93
2022-10-30T05:21:08.211Z,11.92
2022-10-30T05:23:34.644Z,11.83
2022-10-30T05:26:01.414Z,11.57
2022-10-30T05:28:28.037Z,11.50
2022-10-30T05:30:54.837Z,11.61
2022-10-30T05:33:22.573Z,11.61
2022-10-30T05:35:49.881Z,11.65
2022-10-30T05:38:16.391Z,11.65
2022-10-30T05:40:46.596Z,11.64
2022-10-30T05:43:13.161Z,11.59
2022-10-30T05:45:39.622Z,11.52
2022-10-30T05:48:06.999Z,11.64
2022-10-30T05:50:33.926Z,11.65
2022-10-30T05:53:02.971Z,11.57
2022-10-30T05:55:29.869Z,11.59
2022-10-30T05:58:01.447Z,11.55
2022-10-30T06:00:30.355Z,11.53
2022-10-30T06:03:05.569Z,11.56
2022-10-30T06:05:34.660Z,11.54
2022-10-30T06:08:01.919Z,11.51
2022-10-30T06:10:28.547Z,11.48
2022-10-30T06:13:00.208Z,11.32
2022-10-30T06:15:27.989Z,11.37
2022-10-30T06:17:55.028Z,11.30
2022-10-30T06:20:23.930Z,11.30
2022-10-30T06:22:54.498Z,11.20
2022-10-30T06:25:21.077Z,11.19
2022-10-30T06:27:47.665Z,11.16
2022-10-30T06:30:14.244Z,11.17
2022-10-30T06:32:40.707Z,11.17
2022-10-30T06:35:08.348Z,11.18
2022-10-30T06:37:34.929Z,11.21
2022-10-30T06:40:01.624Z,10.92
2022-10-30T06:42:28.083Z,11.22
2022-10-30T06:44:54.682Z,11.24
2022-10-30T06:47:21.175Z,11.26
2022-10-30T06:49:47.654Z,11.27
2022-10-30T06:52:14.105Z,11.28
2022-10-30T06:54:40.551Z,11.29
2022-10-30T06:57:07.011Z,11.32
2022-10-30T06:59:33.503Z,11.40
2022-10-30T07:02:01.047Z,11.43
2022-10-30T07:04:28.953Z,11.58
2022-10-30T07:06:55.575Z,11.57
2022-10-30T07:09:22.007Z,11.66
2022-10-30T07:11:48.505Z,11.74
2022-10-30T07:14:15.080Z,11.80
2022-10-30T07:16:41.521Z,11.86
2022-10-30T07:19:08.039Z,11.98
2022-10-30T07:21:34.571Z,12.04
2022-10-30T07:24:01.034Z,12.15
2022-10-30T07:26:27.531Z,12.22
2022-10-30T07:28:54.015Z,12.29
2022-10-30T07:31:34.755Z,12.23
2022-10-30T07:34:07.049Z,12.31
2022-10-30T07:36:33.499Z,12.38
2022-10-30T07:38:59.933Z,12.53
2022-10-30T07:41:26.401Z,12.67
2022-10-30T07:43:52.844Z,12.87
2022-10-30T07:46:19.306Z,13.07
2022-10-30T07:48:45.773Z,13.25
2022-10-30T07:51:15.131Z,13.61
2022-10-30T07:53:41.565Z,14.00
2022-10-30T07:56:08.140Z,14.37
2022-10-30T07:58:34.603Z,14.77
2022-10-30T08:01:03.553Z,14.98
2022-10-30T08:03:30.243Z,15.20
2022-10-30T08:05:56.852Z,15.33
2022-10-30T08:08:23.462Z,15.46
2022-10-30T08:10:49.945Z,15.50
2022-10-30T08:13:18.310Z,15.58
2022-10-30T08:15:44.844Z,15.78
2022-10-30T08:18:11.340Z,15.92
2022-10-30T08:20:37.863Z,16.06
2022-10-30T08:23:04.342Z,16.30
2022-10-30T08:25:31.208Z,16.57
2022-10-30T08:28:01.850Z,16.91
2022-10-30T08:30:30.640Z,17.31
2022-10-30T08:33:09.820Z,17.63
2022-10-30T08:38:07.633Z,18.36
2022-10-30T08:40:34.120Z,18.84
2022-10-30T08:43:00.602Z,19.35
2022-10-30T08:45:30.854Z,19.50
2022-10-30T08:48:00.397Z,20.15
2022-10-30T08:50:27.677Z,20.29
2022-10-30T08:52:54.857Z,20.61
2022-10-30T08:55:21.890Z,20.65
2022-10-30T08:57:48.340Z,20.64
2022-10-30T09:00:14.881Z,21.15
2022-10-30T09:02:41.500Z,21.41
2022-10-30T09:05:09.219Z,20.94
2022-10-30T09:07:36.061Z,20.30
2022-10-30T09:10:03.285Z,20.12
2022-10-30T09:12:29.864Z,20.18
2022-10-30T09:14:56.531Z,20.15
2022-10-30T09:17:23.167Z,20.58
2022-10-30T09:19:49.659Z,19.75
2022-10-30T09:22:16.117Z,20.04
2022-10-30T09:24:42.574Z,20.62
2022-10-30T09:27:09.107Z,21.02
2022-10-30T09:29:35.901Z,20.98
2022-10-30T09:32:05.088Z,21.07
2022-10-30T09:34:31.631Z,20.92
2022-10-30T09:36:58.092Z,21.11
2022-10-30T09:39:25.463Z,21.34
2022-10-30T09:42:00.367Z,21.61
2022-10-30T09:44:29.530Z,21.84
2022-10-30T09:46:59.071Z,22.17
2022-10-30T09:49:37.698Z,22.33
2022-10-30T09:52:21.571Z,22.69
2022-10-30T09:55:09.120Z,22.12
2022-10-30T09:58:18.393Z,22.11
2022-10-30T10:00:52.843Z,21.65
2022-10-30T10:04:17.957Z,21.81
2022-10-30T10:06:51.033Z,21.56
2022-10-30T10:09:20.799Z,21.47
2022-10-30T10:11:58.880Z,21.10
2022-10-30T10:14:29.704Z,21.16
2022-10-30T10:16:58.680Z,21.01
2022-10-30T10:19:49.259Z,20.95
2022-10-30T10:22:21.799Z,21.27
2022-10-30T10:24:48.822Z,21.44
2022-10-30T10:27:51.270Z,21.47
2022-10-30T10:30:20.367Z,21.42
2022-10-30T10:32:49.622Z,21.58
2022-10-30T10:35:16.147Z,21.80
2022-10-30T10:37:52.552Z,21.95
2022-10-30T10:40:24.831Z,22.45
2022-10-30T10:43:09.643Z,22.75
2022-10-30T10:45:54.766Z,22.64
2022-10-30T10:48:49.496Z,22.33
2022-10-30T10:51:27.321Z,22.13
2022-10-30T10:54:04.731Z,22.33
2022-10-30T10:56:34.841Z,21.71
2022-10-30T10:59:09.304Z,22.08
2022-10-30T11:01:41.023Z,22.21
2022-10-30T11:04:40.467Z,21.90
2022-10-30T11:07:22.223Z,21.95
2022-10-30T11:09:53.802Z,22.21
2022-10-30T11:12:36.578Z,22.57
2022-10-30T11:15:40.314Z,22.30
2022-10-30T11:18:09.117Z,22.28
2022-10-30T11:20:44.709Z,22.38
2022-10-30T11:23:30.892Z,22.61
2022-10-30T11:25:57.376Z,22.51
2022-10-30T11:28:35.484Z,22.61
2022-10-30T11:31:30.273Z,22.50
2022-10-30T11:33:56.695Z,22.51
2022-10-30T11:36:25.466Z,22.77
2022-10-30T11:38:54.603Z,22.31
2022-10-30T11:41:21.192Z,22.17
2022-10-30T11:43:49.289Z,22.50
2022-10-30T11:46:23.183Z,22.50
2022-10-30T11:48:55.049Z,21.93
2022-10-30T11:51:37.265Z,22.08
2022-10-30T11:54:05.477Z,21.90
2022-10-30T11:56:34.103Z,21.72
2022-10-30T11:59:03.523Z,21.87
2022-10-30T12:01:31.357Z,21.85
2022-10-30T12:04:14.407Z,21.74
2022-10-30T12:06:40.954Z,21.65
2022-10-30T12:09:15.812Z,21.89
2022-10-30T12:11:43.500Z,22.09
2022-10-30T12:14:30.480Z,21.81
2022-10-30T12:16:57.394Z,21.83
2022-10-30T12:19:25.965Z,22.04
2022-10-30T12:21:54.584Z,21.88
2022-10-30T12:24:29.511Z,21.75
2022-10-30T12:26:56.911Z,21.79
2022-10-30T12:30:07.473Z,22.00
2022-10-30T12:32:41.958Z,22.16
2022-10-30T12:35:49.205Z,22.19
2022-10-30T12:38:23.883Z,22.14
2022-10-30T12:41:06.107Z,21.93
2022-10-30T12:43:36.296Z,21.95
2022-10-30T12:46:26.060Z,21.99
2022-10-30T12:49:06.019Z,22.12
2022-10-30T12:51:39.082Z,22.35
2022-10-30T12:54:09.976Z,22.29
2022-10-30T12:56:41.727Z,22.11
2022-10-30T12:59:25.278Z,22.11
2022-10-30T13:02:00.095Z,22.04
2022-10-30T13:04:35.982Z,22.20
2022-10-30T13:07:24.195Z,22.31
2022-10-30T13:10:12.463Z,22.51
2022-10-30T13:12:43.002Z,22.30
2022-10-30T13:15:09.717Z,22.15
2022-10-30T13:17:36.223Z,22.18
2022-10-30T13:20:12.530Z,22.19
2022-10-30T13:22:44.921Z,22.22
2022-10-30T13:25:19.147Z,22.17
2022-10-30T13:27:51.376Z,22.35
2022-10-30T13:30:21.218Z,22.26
2022-10-30T13:33:11.768Z,22.29
2022-10-30T13:35:51.319Z,22.24
2022-10-30T13:38:59.544Z,22.49
2022-10-30T13:41:58.534Z,22.65
2022-10-30T13:44:32.845Z,22.56
2022-10-30T13:47:10.754Z,22.62
2022-10-30T13:49:43.222Z,22.86
2022-10-30T13:52:16.004Z,22.94
2022-10-30T13:55:01.523Z,22.94
2022-10-30T13:57:32.491Z,22.67
2022-10-30T14:00:05.173Z,22.99
2022-10-30T14:03:04.321Z,22.83
2022-10-30T14:05:38.044Z,22.72
2022-10-30T14:08:25.163Z,22.74
2022-10-30T14:11:00.378Z,22.58
2022-10-30T14:13:54.305Z,22.52
2022-10-30T14:16:31.988Z,22.44
2022-10-30T14:19:05.941Z,22.42
2022-10-30T14:21:40.493Z,22.49
2022-10-30T14:24:17.730Z,22.42
2022-10-30T14:27:07.518Z,22.40
2022-10-30T14:29:34.250Z,22.30
2022-10-30T14:32:02.153Z,22.18
2022-10-30T14:34:43.862Z,22.33
2022-10-30T14:37:11.302Z,22.28
2022-10-30T14:39:43.318Z,22.34
2022-10-30T14:42:18.904Z,22.40
2022-10-30T14:45:13.520Z,22.26
2022-10-30T14:48:01.997Z,22.25
2022-10-30T14:50:54.839Z,22.29
2022-10-30T14:53:52.509Z,22.33
2022-10-30T14:56:21.993Z,22.33
2022-10-30T14:59:34.377Z,22.29
2022-10-30T15:02:14.916Z,22.20
2022-10-30T15:05:00.270Z,22.17
2022-10-30T15:07:41.532Z,21.97
2022-10-30T15:10:34.014Z,21.99
2022-10-30T15:13:06.846Z,22.00
2022-10-30T15:15:33.978Z,21.96
2022-10-30T15:18:08.297Z,22.00
2022-10-30T15:20:44.423Z,22.02
2022-10-30T15:23:20.638Z,22.04
2022-10-30T15:25:50.411Z,22.02
2022-10-30T15:31:19.944Z,21.98
2022-10-30T15:33:46.579Z,21.97
2022-10-30T15:36:18.496Z,21.90
2022-10-30T15:38:45.038Z,21.87
2022-10-30T15:41:11.858Z,21.85
2022-10-30T15:43:41.510Z,21.72
2022-10-30T15:46:10.159Z,21.68
2022-10-30T15:48:40.914Z,21.50
2022-10-30T15:51:15.718Z,21.50
2022-10-30T15:53:51.291Z,21.51
2022-10-30T15:56:26.584Z,21.47
2022-10-30T15:58:58.963Z,21.43
2022-10-30T16:01:32.706Z,21.35
2022-10-30T16:03:59.353Z,21.27
2022-10-30T16:06:29.573Z,21.14
2022-10-30T16:08:56.495Z,21.05
2022-10-30T16:11:24.531Z,20.95
2022-10-30T16:13:51.165Z,20.90
2022-10-30T16:16:25.839Z,20.82
2022-10-30T16:18:53.525Z,20.64
2022-10-30T16:21:23.415Z,20.56
2022-10-30T16:23:56.104Z,20.46
2022-10-30T16:26:26.871Z,20.37
2022-10-30T16:28:53.548Z,20.32
2022-10-30T16:31:20.845Z,20.21
2022-10-30T16:33:48.739Z,20.15
2022-10-30T16:36:17.312Z,20.08
2022-10-30T16:38:47.028Z,19.96
2022-10-30T16:41:14.296Z,19.92
2022-10-30T16:43:44.681Z,19.77
2022-10-30T16:46:14.142Z,19.75
2022-10-30T16:48:51.707Z,19.72
2022-10-30T16:51:18.952Z,19.64
2022-10-30T16:53:50.365Z,19.55
2022-10-30T16:56:35.251Z,19.44
2022-10-30T16:59:27.427Z,19.35
2022-10-30T17:01:58.075Z,19.32
2022-10-30T17:04:25.531Z,19.22
2022-10-30T17:07:04.853Z,19.13
2022-10-30T17:09:36.249Z,19.02
2022-10-30T17:12:21.276Z,19.00
2022-10-30T17:15:04.413Z,18.93
2022-10-30T17:17:35.096Z,18.83
2022-10-30T17:20:04.137Z,18.78
2022-10-30T17:22:30.980Z,18.72
2022-10-30T17:24:59.408Z,18.70
2022-10-30T17:27:46.436Z,18.62
2022-10-30T17:30:38.152Z,18.62
2022-10-30T17:33:26.483Z,18.57
2022-10-30T17:38:20.621Z,18.45
2022-10-30T17:40:47.378Z,18.46
2022-10-30T17:43:17.590Z,18.34
2022-10-30T17:45:44.540Z,18.28
2022-10-30T17:48:16.762Z,18.26
2022-10-30T17:50:44.279Z,18.20
2022-10-30T17:53:21.712Z,18.16
2022-10-30T17:56:10.160Z,18.12
2022-10-30T17:58:36.605Z,18.08
2022-10-30T18:01:03.381Z,18.03
2022-10-30T18:03:29.941Z,18.11
2022-10-30T18:05:56.443Z,18.05
2022-10-30T18:08:23.094Z,18.09
2022-10-30T18:10:49.650Z,18.07
2022-10-30T18:13:16.188Z,18.07
2022-10-30T18:15:45.367Z,18.07
2022-10-30T18:18:12.471Z,18.06
2022-10-30T18:20:39.018Z,18.06
2022-10-30T18:26:21.396Z,18.11
2022-10-30T18:28:48.176Z,18.11
2022-10-30T18:31:18.200Z,18.07
2022-10-30T18:33:45.370Z,18.07
2022-10-30T18:36:20.432Z,18.08
2022-10-30T18:38:47.547Z,18.00
2022-10-30T18:41:30.094Z,18.05
2022-10-30T18:43:56.606Z,18.01
2022-10-30T18:46:23.951Z,17.96
2022-10-30T18:48:50.665Z,17.82
2022-10-30T18:51:26.372Z,17.92
2022-10-30T18:53:53.183Z,17.93
2022-10-30T18:56:28.493Z,17.90
2022-10-30T18:59:00.673Z,17.91
2022-10-30T19:01:29.032Z,17.86
2022-10-30T19:03:55.663Z,17.87
2022-10-30T19:06:23.816Z,17.87
2022-10-30T19:08:54.086Z,17.86
2022-10-30T19:11:25.837Z,17.82
2022-10-30T19:13:54.583Z,17.77
2022-10-30T19:16:24.429Z,17.72
2022-10-30T19:18:50.983Z,17.69
2022-10-30T19:21:22.956Z,17.66
2022-10-30T19:23:49.579Z,17.66
2022-10-30T19:26:17.367Z,17.70
2022-10-30T19:28:45.374Z,17.69
2022-10-30T19:31:16.665Z,17.67
2022-10-30T19:33:43.498Z,17.63
2022-10-30T19:36:26.964Z,17.61
2022-10-30T19:38:53.972Z,17.59
2022-10-30T19:41:20.658Z,17.56
2022-10-30T19:43:47.319Z,17.56
2022-10-30T19:46:15.235Z,17.57
2022-10-30T19:48:58.465Z,17.56
2022-10-30T19:51:26.057Z,17.55
2022-10-30T19:53:53.733Z,17.45
2022-10-30T19:56:21.608Z,17.46
2022-10-30T19:58:48.519Z,17.33
2022-10-30T20:01:15.371Z,17.29
2022-10-30T20:03:42.000Z,17.24
2022-10-30T20:06:12.110Z,17.17
2022-10-30T20:08:39.078Z,17.00
2022-10-30T20:11:05.771Z,16.92
2022-10-30T20:13:33.428Z,16.78
2022-10-30T20:16:02.622Z,16.66
2022-10-30T20:18:34.292Z,16.56
2022-10-30T20:21:08.516Z,16.50
2022-10-30T20:23:35.297Z,16.38
2022-10-30T20:26:14.912Z,16.35
2022-10-30T20:28:44.130Z,16.24
2022-10-30T20:31:12.242Z,16.19
2022-10-30T20:33:39.139Z,16.15
2022-10-30T20:36:06.058Z,16.06
2022-10-30T20:38:33.970Z,16.03
2022-10-30T20:41:02.930Z,15.97
2022-10-30T20:43:32.181Z,15.85
2022-10-30T20:46:00.055Z,15.77
2022-10-30T20:48:27.535Z,15.64
2022-10-30T20:50:58.753Z,15.59
2022-10-30T20:53:25.655Z,15.53
2022-10-30T20:55:52.152Z,15.47
2022-10-30T20:58:19.006Z,15.33
2022-10-30T21:00:45.828Z,15.33
2022-10-30T21:03:15.389Z,15.33
2022-10-30T21:05:45.056Z,15.31
2022-10-30T21:08:14.963Z,15.28
2022-10-30T21:10:42.287Z,15.26
2022-10-30T21:13:10.320Z,15.19
2022-10-30T21:15:42.565Z,15.22
2022-10-30T21:18:10.959Z,15.21
2022-10-30T21:20:37.734Z,15.15
2022-10-30T21:23:05.111Z,15.16
2022-10-30T21:25:32.482Z,15.13
2022-10-30T21:27:59.747Z,15.12
2022-10-30T21:30:26.717Z,15.09
2022-10-30T21:32:53.232Z,15.09
2022-10-30T21:35:19.946Z,15.06
2022-10-30T21:37:46.595Z,15.03
2022-10-30T21:40:13.618Z,14.98
2022-10-30T21:42:40.085Z,15.02
2022-10-30T21:45:07.656Z,15.02
2022-10-30T21:47:34.150Z,15.04
2022-10-30T21:50:00.675Z,15.00
2022-10-30T21:52:27.199Z,15.07
2022-10-30T21:54:53.635Z,15.03
2022-10-30T21:57:20.089Z,15.10
2022-10-30T21:59:46.591Z,15.15
2022-10-30T22:02:16.159Z,15.16
2022-10-30T22:04:42.670Z,15.23
2022-10-30T22:07:09.335Z,15.28
2022-10-30T22:09:35.872Z,15.27
2022-10-30T22:12:02.395Z,15.33
2022-10-30T22:14:29.385Z,15.37
2022-10-30T22:16:55.992Z,15.39
2022-10-30T22:19:22.516Z,15.35
2022-10-30T22:21:48.988Z,15.29
2022-10-30T22:24:16.060Z,15.48
2022-10-30T22:26:42.536Z,15.50
2022-10-30T22:29:09.556Z,15.53
2022-10-30T22:31:36.046Z,15.51
2022-10-30T22:34:02.630Z,15.42
2022-10-30T22:36:31.561Z,15.61
2022-10-30T22:39:07.429Z,15.57
2022-10-30T22:41:37.977Z,15.53
2022-10-30T22:44:08.083Z,15.58
2022-10-30T22:46:35.692Z,15.64
2022-10-30T22:49:02.260Z,15.63
2022-10-30T22:51:31.929Z,15.64
2022-10-30T22:54:03.828Z,15.57
2022-10-30T22:56:35.510Z,15.60
2022-10-30T22:59:07.369Z,15.56
2022-10-30T23:01:36.245Z,15.51
2022-10-30T23:04:04.804Z,15.55
2022-10-30T23:06:32.571Z,15.49
2022-10-30T23:09:01.701Z,15.44
2022-10-30T23:11:28.959Z,15.43
2022-10-30T23:13:56.294Z,15.42
2022-10-30T23:16:24.786Z,15.44
2022-10-30T23:18:55.957Z,15.46
2022-10-30T23:21:24.450Z,15.48
2022-10-30T23:23:51.407Z,15.52
2022-10-30T23:26:20.877Z,15.46
2022-10-30T23:28:49.508Z,15.48
2022-10-30T23:31:24.026Z,15.48
2022-10-30T23:33:52.502Z,15.51
2022-10-30T23:36:19.217Z,15.53
2022-10-30T23:38:54.377Z,15.56
2022-10-30T23:41:21.989Z,15.57
2022-10-30T23:43:48.701Z,15.58
2022-10-30T23:46:15.179Z,15.60
2022-10-30T23:48:41.679Z,15.58
2022-10-30T23:51:09.261Z,15.58
2022-10-30T23:53:35.880Z,15.48
2022-10-30T23:56:03.616Z,15.48
2022-10-30T23:58:30.180Z,15.43
